sensor_id;sensor_type;location;lat;lon;timestamp;temperature;humidity
21335;DHT22;10826;52.536;13.432;2022-08-05T00:01:18;30.60;33.30
21335;DHT22;10826;52.536;13.432;2022-08-05T00:03:47;30.60;33.50
21335;DHT22;10826;52.536;13.432;2022-08-05T00:06:14;30.50;33.90
21335;DHT22;10826;52.536;13.432;2022-08-05T00:08:41;30.50;34.10
21335;DHT22;10826;52.536;13.432;2022-08-05T00:11:09;30.50;33.70
21335;DHT22;10826;52.536;13.432;2022-08-05T00:13:38;30.50;33.40
21335;DHT22;10826;52.536;13.432;2022-08-05T00:16:07;30.40;33.10
21335;DHT22;10826;52.536;13.432;2022-08-05T00:18:39;30.40;33.20
21335;DHT22;10826;52.536;13.432;2022-08-05T00:21:07;30.50;33.50
21335;DHT22;10826;52.536;13.432;2022-08-05T00:23:33;30.40;33.60
21335;DHT22;10826;52.536;13.432;2022-08-05T00:25:59;30.40;33.80
21335;DHT22;10826;52.536;13.432;2022-08-05T00:28:25;30.40;33.90
21335;DHT22;10826;52.536;13.432;2022-08-05T00:30:51;30.40;33.70
21335;DHT22;10826;52.536;13.432;2022-08-05T00:33:17;30.40;33.60
21335;DHT22;10826;52.536;13.432;2022-08-05T00:35:43;30.30;34.10
21335;DHT22;10826;52.536;13.432;2022-08-05T00:38:09;30.40;34.10
21335;DHT22;10826;52.536;13.432;2022-08-05T00:40:45;30.30;33.90
21335;DHT22;10826;52.536;13.432;2022-08-05T00:43:12;30.30;33.90
21335;DHT22;10826;52.536;13.432;2022-08-05T00:45:38;30.30;34.30
21335;DHT22;10826;52.536;13.432;2022-08-05T00:48:09;30.30;33.90
21335;DHT22;10826;52.536;13.432;2022-08-05T00:50:40;30.30;34.60
21335;DHT22;10826;52.536;13.432;2022-08-05T00:53:07;30.30;34.20
21335;DHT22;10826;52.536;13.432;2022-08-05T00:55:33;30.20;34.10
21335;DHT22;10826;52.536;13.432;2022-08-05T00:58:00;30.30;34.60
21335;DHT22;10826;52.536;13.432;2022-08-05T01:00:28;30.20;34.50
21335;DHT22;10826;52.536;13.432;2022-08-05T01:02:56;30.20;35.30
21335;DHT22;10826;52.536;13.432;2022-08-05T01:05:24;30.20;34.60
21335;DHT22;10826;52.536;13.432;2022-08-05T01:07:50;30.20;34.90
21335;DHT22;10826;52.536;13.432;2022-08-05T01:10:21;30.20;34.80
21335;DHT22;10826;52.536;13.432;2022-08-05T01:13:08;30.20;34.70
21335;DHT22;10826;52.536;13.432;2022-08-05T01:15:43;30.10;34.90
21335;DHT22;10826;52.536;13.432;2022-08-05T01:18:19;30.10;34.90
21335;DHT22;10826;52.536;13.432;2022-08-05T01:21:12;30.10;34.70
21335;DHT22;10826;52.536;13.432;2022-08-05T01:27:17;30.00;34.90
21335;DHT22;10826;52.536;13.432;2022-08-05T01:29:53;30.00;34.90
21335;DHT22;10826;52.536;13.432;2022-08-05T01:32:24;30.00;34.60
21335;DHT22;10826;52.536;13.432;2022-08-05T01:34:58;29.90;33.90
21335;DHT22;10826;52.536;13.432;2022-08-05T01:37:39;29.80;34.30
21335;DHT22;10826;52.536;13.432;2022-08-05T01:40:10;29.80;34.40
21335;DHT22;10826;52.536;13.432;2022-08-05T01:42:38;29.70;34.70
21335;DHT22;10826;52.536;13.432;2022-08-05T01:45:07;29.60;34.80
21335;DHT22;10826;52.536;13.432;2022-08-05T01:47:35;29.50;35.10
21335;DHT22;10826;52.536;13.432;2022-08-05T01:50:08;29.40;35.50
21335;DHT22;10826;52.536;13.432;2022-08-05T01:52:37;29.30;35.80
21335;DHT22;10826;52.536;13.432;2022-08-05T01:55:11;29.20;36.20
21335;DHT22;10826;52.536;13.432;2022-08-05T01:57:41;29.10;36.60
21335;DHT22;10826;52.536;13.432;2022-08-05T02:00:10;29.00;36.90
21335;DHT22;10826;52.536;13.432;2022-08-05T02:02:59;28.90;36.70
21335;DHT22;10826;52.536;13.432;2022-08-05T02:05:31;28.80;36.90
21335;DHT22;10826;52.536;13.432;2022-08-05T02:07:59;28.70;37.60
21335;DHT22;10826;52.536;13.432;2022-08-05T02:10:29;28.60;37.60
21335;DHT22;10826;52.536;13.432;2022-08-05T02:13:07;28.60;37.90
21335;DHT22;10826;52.536;13.432;2022-08-05T02:15:46;28.50;38.10
21335;DHT22;10826;52.536;13.432;2022-08-05T02:18:24;28.40;38.30
21335;DHT22;10826;52.536;13.432;2022-08-05T02:20:56;28.30;38.60
21335;DHT22;10826;52.536;13.432;2022-08-05T02:23:36;28.20;38.90
21335;DHT22;10826;52.536;13.432;2022-08-05T02:26:08;28.10;39.20
21335;DHT22;10826;52.536;13.432;2022-08-05T02:28:40;28.00;39.40
21335;DHT22;10826;52.536;13.432;2022-08-05T02:31:15;27.90;39.30
21335;DHT22;10826;52.536;13.432;2022-08-05T02:33:50;27.90;39.50
21335;DHT22;10826;52.536;13.432;2022-08-05T02:36:21;27.80;39.60
21335;DHT22;10826;52.536;13.432;2022-08-05T02:38:48;27.80;39.90
21335;DHT22;10826;52.536;13.432;2022-08-05T02:41:18;27.70;40.10
21335;DHT22;10826;52.536;13.432;2022-08-05T02:43:46;27.70;40.00
21335;DHT22;10826;52.536;13.432;2022-08-05T02:46:15;27.70;40.20
21335;DHT22;10826;52.536;13.432;2022-08-05T02:48:43;27.60;40.40
21335;DHT22;10826;52.536;13.432;2022-08-05T02:51:14;27.60;40.50
21335;DHT22;10826;52.536;13.432;2022-08-05T02:53:41;27.50;40.90
21335;DHT22;10826;52.536;13.432;2022-08-05T02:56:09;27.40;41.10
21335;DHT22;10826;52.536;13.432;2022-08-05T02:58:40;27.30;41.60
21335;DHT22;10826;52.536;13.432;2022-08-05T03:01:15;27.20;41.80
21335;DHT22;10826;52.536;13.432;2022-08-05T03:03:48;27.20;42.00
21335;DHT22;10826;52.536;13.432;2022-08-05T03:06:16;27.10;42.20
21335;DHT22;10826;52.536;13.432;2022-08-05T03:08:45;27.10;42.50
21335;DHT22;10826;52.536;13.432;2022-08-05T03:11:22;27.10;42.70
21335;DHT22;10826;52.536;13.432;2022-08-05T03:13:51;27.00;42.70
21335;DHT22;10826;52.536;13.432;2022-08-05T03:16:19;27.00;42.90
21335;DHT22;10826;52.536;13.432;2022-08-05T03:18:46;26.90;42.50
21335;DHT22;10826;52.536;13.432;2022-08-05T03:21:14;26.90;42.80
21335;DHT22;10826;52.536;13.432;2022-08-05T03:23:42;26.80;42.90
21335;DHT22;10826;52.536;13.432;2022-08-05T03:26:10;26.80;43.10
21335;DHT22;10826;52.536;13.432;2022-08-05T03:28:37;26.70;43.30
21335;DHT22;10826;52.536;13.432;2022-08-05T03:31:04;26.70;43.40
21335;DHT22;10826;52.536;13.432;2022-08-05T03:33:31;26.60;43.50
21335;DHT22;10826;52.536;13.432;2022-08-05T03:35:59;26.60;43.60
21335;DHT22;10826;52.536;13.432;2022-08-05T03:38:26;26.60;43.70
21335;DHT22;10826;52.536;13.432;2022-08-05T03:40:52;26.60;43.70
21335;DHT22;10826;52.536;13.432;2022-08-05T03:43:19;26.60;44.00
21335;DHT22;10826;52.536;13.432;2022-08-05T03:45:46;26.60;43.90
21335;DHT22;10826;52.536;13.432;2022-08-05T03:48:13;26.50;44.20
21335;DHT22;10826;52.536;13.432;2022-08-05T03:51:02;26.50;44.30
21335;DHT22;10826;52.536;13.432;2022-08-05T03:53:41;26.50;44.40
21335;DHT22;10826;52.536;13.432;2022-08-05T03:58:50;26.50;44.60
21335;DHT22;10826;52.536;13.432;2022-08-05T04:01:20;26.50;44.70
21335;DHT22;10826;52.536;13.432;2022-08-05T04:03:49;26.50;44.70
21335;DHT22;10826;52.536;13.432;2022-08-05T04:06:18;26.50;44.70
21335;DHT22;10826;52.536;13.432;2022-08-05T04:08:44;26.50;44.70
21335;DHT22;10826;52.536;13.432;2022-08-05T04:11:11;26.50;44.90
21335;DHT22;10826;52.536;13.432;2022-08-05T04:13:39;26.50;44.90
21335;DHT22;10826;52.536;13.432;2022-08-05T04:16:10;26.60;44.90
21335;DHT22;10826;52.536;13.432;2022-08-05T04:18:37;26.60;44.80
21335;DHT22;10826;52.536;13.432;2022-08-05T04:21:05;26.60;44.80
21335;DHT22;10826;52.536;13.432;2022-08-05T04:23:33;26.60;44.80
21335;DHT22;10826;52.536;13.432;2022-08-05T04:26:04;26.60;44.90
21335;DHT22;10826;52.536;13.432;2022-08-05T04:28:31;26.70;44.90
21335;DHT22;10826;52.536;13.432;2022-08-05T04:30:59;26.70;44.90
21335;DHT22;10826;52.536;13.432;2022-08-05T04:33:27;26.70;45.20
21335;DHT22;10826;52.536;13.432;2022-08-05T04:35:53;26.70;45.10
21335;DHT22;10826;52.536;13.432;2022-08-05T04:38:20;26.70;45.20
21335;DHT22;10826;52.536;13.432;2022-08-05T04:40:46;26.70;45.30
21335;DHT22;10826;52.536;13.432;2022-08-05T04:43:13;26.70;45.40
21335;DHT22;10826;52.536;13.432;2022-08-05T04:45:49;26.70;45.60
21335;DHT22;10826;52.536;13.432;2022-08-05T04:48:15;26.70;45.70
21335;DHT22;10826;52.536;13.432;2022-08-05T04:50:46;26.60;45.90
21335;DHT22;10826;52.536;13.432;2022-08-05T04:53:17;26.70;45.80
21335;DHT22;10826;52.536;13.432;2022-08-05T04:55:44;26.70;46.00
21335;DHT22;10826;52.536;13.432;2022-08-05T04:58:13;26.70;45.90
21335;DHT22;10826;52.536;13.432;2022-08-05T05:00:41;26.80;45.90
21335;DHT22;10826;52.536;13.432;2022-08-05T05:03:08;26.80;45.90
21335;DHT22;10826;52.536;13.432;2022-08-05T05:05:35;26.80;45.80
21335;DHT22;10826;52.536;13.432;2022-08-05T05:10:37;26.90;45.60
21335;DHT22;10826;52.536;13.432;2022-08-05T05:13:11;27.00;46.00
21335;DHT22;10826;52.536;13.432;2022-08-05T05:15:39;27.00;46.00
21335;DHT22;10826;52.536;13.432;2022-08-05T05:18:05;27.00;46.10
21335;DHT22;10826;52.536;13.432;2022-08-05T05:20:32;27.10;46.10
21335;DHT22;10826;52.536;13.432;2022-08-05T05:23:00;27.10;46.00
21335;DHT22;10826;52.536;13.432;2022-08-05T05:25:29;27.10;45.90
21335;DHT22;10826;52.536;13.432;2022-08-05T05:27:55;27.20;45.90
21335;DHT22;10826;52.536;13.432;2022-08-05T05:30:22;27.30;45.90
21335;DHT22;10826;52.536;13.432;2022-08-05T05:32:48;27.30;45.90
21335;DHT22;10826;52.536;13.432;2022-08-05T05:35:15;27.30;45.90
21335;DHT22;10826;52.536;13.432;2022-08-05T05:37:53;27.40;45.90
21335;DHT22;10826;52.536;13.432;2022-08-05T05:40:25;27.40;45.80
21335;DHT22;10826;52.536;13.432;2022-08-05T05:42:53;27.40;45.90
21335;DHT22;10826;52.536;13.432;2022-08-05T05:45:20;27.40;45.80
21335;DHT22;10826;52.536;13.432;2022-08-05T05:47:46;27.50;45.80
21335;DHT22;10826;52.536;13.432;2022-08-05T05:50:15;27.50;45.80
21335;DHT22;10826;52.536;13.432;2022-08-05T05:52:43;27.50;45.80
21335;DHT22;10826;52.536;13.432;2022-08-05T05:55:11;27.50;45.70
21335;DHT22;10826;52.536;13.432;2022-08-05T05:57:40;27.60;45.50
21335;DHT22;10826;52.536;13.432;2022-08-05T06:00:10;27.60;45.40
21335;DHT22;10826;52.536;13.432;2022-08-05T06:02:40;27.60;45.40
21335;DHT22;10826;52.536;13.432;2022-08-05T06:05:08;27.70;45.40
21335;DHT22;10826;52.536;13.432;2022-08-05T06:07:35;27.70;45.20
21335;DHT22;10826;52.536;13.432;2022-08-05T06:10:03;27.80;45.20
21335;DHT22;10826;52.536;13.432;2022-08-05T06:12:30;27.80;45.10
21335;DHT22;10826;52.536;13.432;2022-08-05T06:14:59;27.80;45.10
21335;DHT22;10826;52.536;13.432;2022-08-05T06:17:26;27.80;45.10
21335;DHT22;10826;52.536;13.432;2022-08-05T06:19:52;27.80;44.90
21335;DHT22;10826;52.536;13.432;2022-08-05T06:22:26;27.90;44.80
21335;DHT22;10826;52.536;13.432;2022-08-05T06:24:55;27.90;44.80
21335;DHT22;10826;52.536;13.432;2022-08-05T06:27:21;27.90;45.20
21335;DHT22;10826;52.536;13.432;2022-08-05T06:29:47;27.90;45.40
21335;DHT22;10826;52.536;13.432;2022-08-05T06:32:13;27.90;45.30
21335;DHT22;10826;52.536;13.432;2022-08-05T06:34:39;27.90;45.30
21335;DHT22;10826;52.536;13.432;2022-08-05T06:37:05;28.00;45.90
21335;DHT22;10826;52.536;13.432;2022-08-05T06:39:32;28.00;45.90
21335;DHT22;10826;52.536;13.432;2022-08-05T06:42:00;28.00;46.00
21335;DHT22;10826;52.536;13.432;2022-08-05T06:44:27;28.00;45.90
21335;DHT22;10826;52.536;13.432;2022-08-05T06:46:55;28.00;45.90
21335;DHT22;10826;52.536;13.432;2022-08-05T06:49:21;28.10;45.90
21335;DHT22;10826;52.536;13.432;2022-08-05T06:51:48;28.10;45.90
21335;DHT22;10826;52.536;13.432;2022-08-05T06:54:14;28.20;46.00
21335;DHT22;10826;52.536;13.432;2022-08-05T06:56:40;28.20;45.90
21335;DHT22;10826;52.536;13.432;2022-08-05T06:59:06;28.30;45.80
21335;DHT22;10826;52.536;13.432;2022-08-05T07:01:33;28.40;45.40
21335;DHT22;10826;52.536;13.432;2022-08-05T07:04:00;28.50;45.20
21335;DHT22;10826;52.536;13.432;2022-08-05T07:06:26;28.60;45.00
21335;DHT22;10826;52.536;13.432;2022-08-05T07:08:52;28.50;45.10
21335;DHT22;10826;52.536;13.432;2022-08-05T07:11:19;28.60;45.00
21335;DHT22;10826;52.536;13.432;2022-08-05T07:13:45;28.60;44.70
21335;DHT22;10826;52.536;13.432;2022-08-05T07:16:30;28.60;44.80
21335;DHT22;10826;52.536;13.432;2022-08-05T07:19:19;28.70;44.50
21335;DHT22;10826;52.536;13.432;2022-08-05T07:21:49;28.70;44.40
21335;DHT22;10826;52.536;13.432;2022-08-05T07:24:16;28.80;44.30
21335;DHT22;10826;52.536;13.432;2022-08-05T07:26:43;28.90;44.10
21335;DHT22;10826;52.536;13.432;2022-08-05T07:29:10;28.90;43.90
21335;DHT22;10826;52.536;13.432;2022-08-05T07:31:36;29.00;44.50
21335;DHT22;10826;52.536;13.432;2022-08-05T07:34:02;29.00;44.50
21335;DHT22;10826;52.536;13.432;2022-08-05T07:36:29;29.10;44.30
21335;DHT22;10826;52.536;13.432;2022-08-05T07:39:01;29.10;44.00
21335;DHT22;10826;52.536;13.432;2022-08-05T07:41:29;29.20;43.60
21335;DHT22;10826;52.536;13.432;2022-08-05T07:43:56;29.20;43.60
21335;DHT22;10826;52.536;13.432;2022-08-05T07:46:27;29.30;43.50
21335;DHT22;10826;52.536;13.432;2022-08-05T07:49:08;29.40;43.50
21335;DHT22;10826;52.536;13.432;2022-08-05T07:51:35;29.40;43.30
21335;DHT22;10826;52.536;13.432;2022-08-05T07:54:02;29.50;42.90
21335;DHT22;10826;52.536;13.432;2022-08-05T07:56:28;29.40;42.80
21335;DHT22;10826;52.536;13.432;2022-08-05T07:58:54;29.30;42.70
21335;DHT22;10826;52.536;13.432;2022-08-05T08:01:20;29.30;42.70
21335;DHT22;10826;52.536;13.432;2022-08-05T08:03:49;29.20;42.80
21335;DHT22;10826;52.536;13.432;2022-08-05T08:06:15;29.10;43.10
21335;DHT22;10826;52.536;13.432;2022-08-05T08:08:41;29.10;43.30
21335;DHT22;10826;52.536;13.432;2022-08-05T08:11:07;29.00;43.50
21335;DHT22;10826;52.536;13.432;2022-08-05T08:13:33;29.00;43.70
21335;DHT22;10826;52.536;13.432;2022-08-05T08:15:59;28.90;44.70
21335;DHT22;10826;52.536;13.432;2022-08-05T08:18:25;28.90;46.20
21335;DHT22;10826;52.536;13.432;2022-08-05T08:20:51;28.80;46.40
21335;DHT22;10826;52.536;13.432;2022-08-05T08:23:17;28.60;46.00
21335;DHT22;10826;52.536;13.432;2022-08-05T08:25:44;28.40;45.60
21335;DHT22;10826;52.536;13.432;2022-08-05T08:28:10;28.40;45.00
21335;DHT22;10826;52.536;13.432;2022-08-05T08:30:36;28.30;44.80
21335;DHT22;10826;52.536;13.432;2022-08-05T08:33:11;28.30;44.90
21335;DHT22;10826;52.536;13.432;2022-08-05T08:35:37;28.30;44.60
21335;DHT22;10826;52.536;13.432;2022-08-05T08:38:04;28.30;44.60
21335;DHT22;10826;52.536;13.432;2022-08-05T08:40:34;28.30;44.00
21335;DHT22;10826;52.536;13.432;2022-08-05T08:43:01;28.40;44.00
21335;DHT22;10826;52.536;13.432;2022-08-05T08:45:29;28.40;43.60
21335;DHT22;10826;52.536;13.432;2022-08-05T08:47:57;28.40;43.30
21335;DHT22;10826;52.536;13.432;2022-08-05T08:50:28;28.50;43.00
21335;DHT22;10826;52.536;13.432;2022-08-05T08:53:05;28.40;43.00
21335;DHT22;10826;52.536;13.432;2022-08-05T08:55:33;28.40;42.90
21335;DHT22;10826;52.536;13.432;2022-08-05T08:57:59;28.40;42.90
21335;DHT22;10826;52.536;13.432;2022-08-05T09:00:27;28.40;42.90
21335;DHT22;10826;52.536;13.432;2022-08-05T09:02:53;28.40;43.00
21335;DHT22;10826;52.536;13.432;2022-08-05T09:05:21;28.30;43.00
21335;DHT22;10826;52.536;13.432;2022-08-05T09:07:48;28.30;43.60
21335;DHT22;10826;52.536;13.432;2022-08-05T09:10:15;28.30;44.50
21335;DHT22;10826;52.536;13.432;2022-08-05T09:12:41;28.20;45.20
21335;DHT22;10826;52.536;13.432;2022-08-05T09:15:08;28.20;45.20
21335;DHT22;10826;52.536;13.432;2022-08-05T09:17:34;28.20;45.60
21335;DHT22;10826;52.536;13.432;2022-08-05T09:20:01;28.20;45.80
21335;DHT22;10826;52.536;13.432;2022-08-05T09:25:27;28.20;46.60
21335;DHT22;10826;52.536;13.432;2022-08-05T09:27:53;28.10;46.70
21335;DHT22;10826;52.536;13.432;2022-08-05T09:30:19;28.10;46.80
21335;DHT22;10826;52.536;13.432;2022-08-05T09:32:45;28.20;46.50
21335;DHT22;10826;52.536;13.432;2022-08-05T09:35:15;28.20;46.60
21335;DHT22;10826;52.536;13.432;2022-08-05T09:37:52;28.30;46.30
21335;DHT22;10826;52.536;13.432;2022-08-05T09:40:34;28.40;46.00
21335;DHT22;10826;52.536;13.432;2022-08-05T09:43:04;28.60;45.80
21335;DHT22;10826;52.536;13.432;2022-08-05T09:45:37;28.70;45.20
21335;DHT22;10826;52.536;13.432;2022-08-05T09:48:22;28.70;44.80
21335;DHT22;10826;52.536;13.432;2022-08-05T09:50:59;28.90;44.40
21335;DHT22;10826;52.536;13.432;2022-08-05T09:53:27;28.90;44.30
21335;DHT22;10826;52.536;13.432;2022-08-05T09:55:58;29.00;44.20
21335;DHT22;10826;52.536;13.432;2022-08-05T09:58:26;29.10;44.40
21335;DHT22;10826;52.536;13.432;2022-08-05T10:01:01;29.10;43.40
21335;DHT22;10826;52.536;13.432;2022-08-05T10:03:29;29.10;43.40
21335;DHT22;10826;52.536;13.432;2022-08-05T10:06:07;29.10;43.50
21335;DHT22;10826;52.536;13.432;2022-08-05T10:08:36;29.20;44.30
21335;DHT22;10826;52.536;13.432;2022-08-05T10:11:22;29.10;44.00
21335;DHT22;10826;52.536;13.432;2022-08-05T10:13:48;29.00;44.10
21335;DHT22;10826;52.536;13.432;2022-08-05T10:16:33;29.00;44.50
21335;DHT22;10826;52.536;13.432;2022-08-05T10:19:01;29.00;44.70
21335;DHT22;10826;52.536;13.432;2022-08-05T10:21:27;28.80;44.90
21335;DHT22;10826;52.536;13.432;2022-08-05T10:23:54;28.80;44.70
21335;DHT22;10826;52.536;13.432;2022-08-05T10:26:20;28.80;44.80
21335;DHT22;10826;52.536;13.432;2022-08-05T10:28:46;28.80;44.90
21335;DHT22;10826;52.536;13.432;2022-08-05T10:31:14;28.70;44.90
21335;DHT22;10826;52.536;13.432;2022-08-05T10:33:41;28.80;44.80
21335;DHT22;10826;52.536;13.432;2022-08-05T10:36:07;28.80;44.10
21335;DHT22;10826;52.536;13.432;2022-08-05T10:38:35;28.80;44.20
21335;DHT22;10826;52.536;13.432;2022-08-05T10:41:25;28.90;44.30
21335;DHT22;10826;52.536;13.432;2022-08-05T10:44:02;28.90;44.30
21335;DHT22;10826;52.536;13.432;2022-08-05T10:46:49;28.90;45.10
21335;DHT22;10826;52.536;13.432;2022-08-05T10:49:18;29.00;46.20
21335;DHT22;10826;52.536;13.432;2022-08-05T10:54:22;28.90;46.10
21335;DHT22;10826;52.536;13.432;2022-08-05T10:56:51;28.90;46.50
21335;DHT22;10826;52.536;13.432;2022-08-05T10:59:28;28.90;47.10
21335;DHT22;10826;52.536;13.432;2022-08-05T11:02:16;28.90;47.60
21335;DHT22;10826;52.536;13.432;2022-08-05T11:04:43;28.90;47.30
21335;DHT22;10826;52.536;13.432;2022-08-05T11:07:13;28.90;47.00
21335;DHT22;10826;52.536;13.432;2022-08-05T11:09:52;28.90;46.50
21335;DHT22;10826;52.536;13.432;2022-08-05T11:17:37;28.90;43.60
21335;DHT22;10826;52.536;13.432;2022-08-05T11:20:05;29.00;43.90
21335;DHT22;10826;52.536;13.432;2022-08-05T11:22:47;29.00;44.10
21335;DHT22;10826;52.536;13.432;2022-08-05T11:36:07;29.20;43.00
21335;DHT22;10826;52.536;13.432;2022-08-05T11:41:35;29.20;42.60
21335;DHT22;10826;52.536;13.432;2022-08-05T11:44:07;29.20;42.30
21335;DHT22;10826;52.536;13.432;2022-08-05T11:46:53;29.10;42.70
21335;DHT22;10826;52.536;13.432;2022-08-05T11:49:21;29.00;42.70
21335;DHT22;10826;52.536;13.432;2022-08-05T11:51:50;29.00;43.40
21335;DHT22;10826;52.536;13.432;2022-08-05T11:54:29;29.00;43.70
21335;DHT22;10826;52.536;13.432;2022-08-05T11:56:59;29.00;43.80
21335;DHT22;10826;52.536;13.432;2022-08-05T11:59:28;29.00;44.00
21335;DHT22;10826;52.536;13.432;2022-08-05T12:02:05;29.10;44.20
21335;DHT22;10826;52.536;13.432;2022-08-05T12:04:46;29.10;44.10
21335;DHT22;10826;52.536;13.432;2022-08-05T12:07:15;29.20;44.00
21335;DHT22;10826;52.536;13.432;2022-08-05T12:09:47;29.20;44.00
21335;DHT22;10826;52.536;13.432;2022-08-05T12:12:23;29.20;44.00
21335;DHT22;10826;52.536;13.432;2022-08-05T12:14:52;29.30;43.80
21335;DHT22;10826;52.536;13.432;2022-08-05T12:17:18;29.30;44.00
21335;DHT22;10826;52.536;13.432;2022-08-05T12:19:47;29.30;43.70
21335;DHT22;10826;52.536;13.432;2022-08-05T12:22:26;29.30;43.10
21335;DHT22;10826;52.536;13.432;2022-08-05T12:24:54;29.40;43.00
21335;DHT22;10826;52.536;13.432;2022-08-05T12:27:25;29.50;42.80
21335;DHT22;10826;52.536;13.432;2022-08-05T12:30:04;29.50;42.50
21335;DHT22;10826;52.536;13.432;2022-08-05T12:32:32;29.60;42.10
21335;DHT22;10826;52.536;13.432;2022-08-05T12:35:03;29.60;41.90
21335;DHT22;10826;52.536;13.432;2022-08-05T12:37:30;29.60;41.80
21335;DHT22;10826;52.536;13.432;2022-08-05T12:39:57;29.70;41.40
21335;DHT22;10826;52.536;13.432;2022-08-05T12:42:28;29.70;41.30
21335;DHT22;10826;52.536;13.432;2022-08-05T12:45:07;29.80;41.20
21335;DHT22;10826;52.536;13.432;2022-08-05T12:47:34;29.90;41.00
21335;DHT22;10826;52.536;13.432;2022-08-05T12:50:16;29.90;40.70
21335;DHT22;10826;52.536;13.432;2022-08-05T12:52:54;30.00;41.00
21335;DHT22;10826;52.536;13.432;2022-08-05T12:55:24;30.10;41.10
21335;DHT22;10826;52.536;13.432;2022-08-05T12:57:52;30.10;41.10
21335;DHT22;10826;52.536;13.432;2022-08-05T13:00:25;30.20;40.90
21335;DHT22;10826;52.536;13.432;2022-08-05T13:02:55;30.20;41.00
21335;DHT22;10826;52.536;13.432;2022-08-05T13:05:22;30.20;41.00
21335;DHT22;10826;52.536;13.432;2022-08-05T13:07:49;30.30;41.20
21335;DHT22;10826;52.536;13.432;2022-08-05T13:10:16;30.30;41.20
21335;DHT22;10826;52.536;13.432;2022-08-05T13:12:43;30.40;40.90
21335;DHT22;10826;52.536;13.432;2022-08-05T13:15:11;30.50;39.90
21335;DHT22;10826;52.536;13.432;2022-08-05T13:17:39;30.60;39.50
21335;DHT22;10826;52.536;13.432;2022-08-05T13:20:15;30.70;39.20
21335;DHT22;10826;52.536;13.432;2022-08-05T13:22:48;30.80;38.90
21335;DHT22;10826;52.536;13.432;2022-08-05T13:25:18;30.80;39.00
21335;DHT22;10826;52.536;13.432;2022-08-05T13:27:50;30.90;38.70
21335;DHT22;10826;52.536;13.432;2022-08-05T13:30:19;31.00;39.00
21335;DHT22;10826;52.536;13.432;2022-08-05T13:32:47;31.10;38.50
21335;DHT22;10826;52.536;13.432;2022-08-05T13:35:14;31.10;38.30
21335;DHT22;10826;52.536;13.432;2022-08-05T13:37:41;31.10;38.10
21335;DHT22;10826;52.536;13.432;2022-08-05T13:40:08;31.20;38.00
21335;DHT22;10826;52.536;13.432;2022-08-05T13:42:35;31.20;37.90
21335;DHT22;10826;52.536;13.432;2022-08-05T13:45:02;31.30;37.90
21335;DHT22;10826;52.536;13.432;2022-08-05T13:47:29;31.30;37.60
21335;DHT22;10826;52.536;13.432;2022-08-05T13:49:55;31.30;37.50
21335;DHT22;10826;52.536;13.432;2022-08-05T13:52:25;31.30;37.50
21335;DHT22;10826;52.536;13.432;2022-08-05T13:54:52;31.30;37.50
21335;DHT22;10826;52.536;13.432;2022-08-05T13:57:18;31.30;37.60
21335;DHT22;10826;52.536;13.432;2022-08-05T13:59:45;31.30;37.50
21335;DHT22;10826;52.536;13.432;2022-08-05T14:02:12;31.30;37.60
21335;DHT22;10826;52.536;13.432;2022-08-05T14:04:41;31.30;37.60
21335;DHT22;10826;52.536;13.432;2022-08-05T14:07:30;31.30;37.70
21335;DHT22;10826;52.536;13.432;2022-08-05T14:10:01;31.30;37.90
21335;DHT22;10826;52.536;13.432;2022-08-05T14:12:27;31.30;37.80
21335;DHT22;10826;52.536;13.432;2022-08-05T14:14:53;31.30;38.00
21335;DHT22;10826;52.536;13.432;2022-08-05T14:17:19;31.40;38.20
21335;DHT22;10826;52.536;13.432;2022-08-05T14:19:48;31.40;38.40
21335;DHT22;10826;52.536;13.432;2022-08-05T14:22:14;31.40;38.50
21335;DHT22;10826;52.536;13.432;2022-08-05T14:24:40;31.40;38.60
21335;DHT22;10826;52.536;13.432;2022-08-05T14:27:06;31.40;39.10
21335;DHT22;10826;52.536;13.432;2022-08-05T14:29:32;31.40;39.40
21335;DHT22;10826;52.536;13.432;2022-08-05T14:31:59;31.50;39.60
21335;DHT22;10826;52.536;13.432;2022-08-05T14:34:25;31.40;39.80
21335;DHT22;10826;52.536;13.432;2022-08-05T14:36:51;31.50;39.90
21335;DHT22;10826;52.536;13.432;2022-08-05T14:39:17;31.40;39.90
21335;DHT22;10826;52.536;13.432;2022-08-05T14:41:43;31.40;40.00
21335;DHT22;10826;52.536;13.432;2022-08-05T14:44:09;31.40;40.00
21335;DHT22;10826;52.536;13.432;2022-08-05T14:46:35;31.50;39.90
21335;DHT22;10826;52.536;13.432;2022-08-05T14:49:03;31.40;39.90
21335;DHT22;10826;52.536;13.432;2022-08-05T14:51:30;31.30;40.10
21335;DHT22;10826;52.536;13.432;2022-08-05T14:53:57;31.30;40.20
21335;DHT22;10826;52.536;13.432;2022-08-05T14:56:23;31.20;40.20
21335;DHT22;10826;52.536;13.432;2022-08-05T14:58:49;31.20;40.40
21335;DHT22;10826;52.536;13.432;2022-08-05T15:01:19;31.10;40.50
21335;DHT22;10826;52.536;13.432;2022-08-05T15:03:46;31.00;40.70
21335;DHT22;10826;52.536;13.432;2022-08-05T15:06:12;30.90;40.40
21335;DHT22;10826;52.536;13.432;2022-08-05T15:08:38;30.90;40.50
21335;DHT22;10826;52.536;13.432;2022-08-05T15:11:04;30.80;40.60
21335;DHT22;10826;52.536;13.432;2022-08-05T15:13:32;30.80;40.80
21335;DHT22;10826;52.536;13.432;2022-08-05T15:15:58;30.70;41.10
21335;DHT22;10826;52.536;13.432;2022-08-05T15:18:24;30.60;41.30
21335;DHT22;10826;52.536;13.432;2022-08-05T15:20:50;30.60;41.50
21335;DHT22;10826;52.536;13.432;2022-08-05T15:23:16;30.50;41.50
21335;DHT22;10826;52.536;13.432;2022-08-05T15:25:42;30.40;41.60
21335;DHT22;10826;52.536;13.432;2022-08-05T15:28:09;30.40;42.00
21335;DHT22;10826;52.536;13.432;2022-08-05T15:30:35;30.20;42.20
21335;DHT22;10826;52.536;13.432;2022-08-05T15:33:04;30.10;42.20
21335;DHT22;10826;52.536;13.432;2022-08-05T15:35:31;30.10;42.40
21335;DHT22;10826;52.536;13.432;2022-08-05T15:37:57;30.00;42.50
21335;DHT22;10826;52.536;13.432;2022-08-05T15:40:24;29.90;42.00
21335;DHT22;10826;52.536;13.432;2022-08-05T15:42:50;29.80;42.20
21335;DHT22;10826;52.536;13.432;2022-08-05T15:45:17;29.70;42.60
21335;DHT22;10826;52.536;13.432;2022-08-05T15:47:43;29.60;43.10
21335;DHT22;10826;52.536;13.432;2022-08-05T15:50:12;29.50;43.50
21335;DHT22;10826;52.536;13.432;2022-08-05T15:52:39;29.50;43.80
21335;DHT22;10826;52.536;13.432;2022-08-05T15:55:08;29.40;44.10
21335;DHT22;10826;52.536;13.432;2022-08-05T15:57:35;29.40;44.50
21335;DHT22;10826;52.536;13.432;2022-08-05T16:00:06;29.30;45.30
21335;DHT22;10826;52.536;13.432;2022-08-05T16:02:33;29.30;45.80